createdAt,value
2018-03-18T00:01:58.055Z,18.87
2018-03-18T00:04:26.375Z,22.20
2018-03-18T00:06:53.982Z,18.12
2018-03-18T00:09:22.295Z,19.37
2018-03-18T00:11:49.799Z,19.00
2018-03-18T00:14:17.290Z,20.30
2018-03-18T00:16:45.662Z,20.75
2018-03-18T00:19:13.202Z,21.00
2018-03-18T00:21:40.832Z,18.20
2018-03-18T00:24:08.348Z,17.85
2018-03-18T00:26:37.553Z,20.62
2018-03-18T00:29:05.825Z,19.65
2018-03-18T00:31:34.094Z,17.17
2018-03-18T00:34:02.351Z,16.85
2018-03-18T00:36:29.873Z,18.05
2018-03-18T00:38:57.358Z,16.23
2018-03-18T00:41:24.854Z,18.92
2018-03-18T00:43:53.398Z,15.45
2018-03-18T00:46:20.886Z,20.45
2018-03-18T00:48:49.166Z,15.98
2018-03-18T00:51:29.139Z,16.70
2018-03-18T00:53:56.646Z,20.58
2018-03-18T00:56:24.143Z,20.58
2018-03-18T00:58:52.431Z,15.23
2018-03-18T01:01:20.685Z,13.82
2018-03-18T01:03:48.962Z,17.87
2018-03-18T01:06:17.402Z,17.48
2018-03-18T01:08:44.918Z,16.10
2018-03-18T01:11:12.418Z,15.82
2018-03-18T01:13:39.965Z,17.73
2018-03-18T01:16:07.446Z,15.50
2018-03-18T01:18:34.956Z,17.20
2018-03-18T01:21:02.497Z,16.40
2018-03-18T01:23:30.762Z,17.95
2018-03-18T01:25:58.245Z,16.83
2018-03-18T01:28:26.533Z,18.80
2018-03-18T01:30:54.071Z,17.27
2018-03-18T01:33:22.544Z,17.02
2018-03-18T01:35:50.214Z,16.05
2018-03-18T01:38:18.474Z,15.30
2018-03-18T01:40:45.970Z,17.95
2018-03-18T01:43:13.511Z,16.98
2018-03-18T01:45:41.793Z,15.82
2018-03-18T01:48:10.058Z,16.37
2018-03-18T01:50:38.354Z,20.27
2018-03-18T01:53:17.982Z,15.32
2018-03-18T01:55:46.242Z,20.58
2018-03-18T01:58:13.742Z,16.92
2018-03-18T02:00:41.241Z,18.45
2018-03-18T02:03:08.843Z,15.82
2018-03-18T02:05:37.118Z,20.23
2018-03-18T02:08:05.405Z,17.23
2018-03-18T02:10:32.903Z,17.85
2018-03-18T02:13:00.415Z,22.98
2018-03-18T02:15:29.690Z,20.40
2018-03-18T02:17:57.313Z,20.75
2018-03-18T02:20:24.850Z,20.20
2018-03-18T02:22:52.362Z,19.77
2018-03-18T02:25:19.893Z,16.33
2018-03-18T02:27:47.386Z,18.67
2018-03-18T02:30:14.918Z,17.23
2018-03-18T02:32:42.423Z,18.05
2018-03-18T02:35:10.685Z,16.45
2018-03-18T02:37:38.202Z,17.35
2018-03-18T02:40:05.694Z,20.40
2018-03-18T02:42:33.182Z,18.90
2018-03-18T02:45:01.458Z,15.27
2018-03-18T02:47:29.738Z,18.40
2018-03-18T02:49:58.006Z,15.77
2018-03-18T02:52:26.534Z,18.58
2018-03-18T02:54:55.017Z,17.35
2018-03-18T02:57:23.394Z,16.50
2018-03-18T02:59:50.911Z,16.90
2018-03-18T03:02:19.191Z,16.27
2018-03-18T03:04:47.464Z,17.30
2018-03-18T03:07:15.738Z,17.50
2018-03-18T03:09:44.020Z,18.27
2018-03-18T03:12:12.298Z,18.70
2018-03-18T03:14:40.571Z,17.85
2018-03-18T03:17:08.850Z,17.80
2018-03-18T03:19:37.122Z,20.10
2018-03-18T03:22:05.385Z,18.48
2018-03-18T03:24:33.089Z,21.05
2018-03-18T03:27:00.606Z,21.85
2018-03-18T03:29:28.122Z,19.75
2018-03-18T03:31:55.645Z,20.10
2018-03-18T03:34:23.914Z,19.52
2018-03-18T03:36:51.418Z,18.27
2018-03-18T03:39:18.914Z,21.37
2018-03-18T03:41:46.414Z,19.35
2018-03-18T03:44:18.808Z,18.10
2018-03-18T03:46:46.307Z,18.90
2018-03-18T03:49:14.511Z,21.52
2018-03-18T03:51:42.905Z,24.75
2018-03-18T03:54:10.406Z,19.12
2018-03-18T03:56:37.929Z,20.95
2018-03-18T03:59:05.559Z,18.62
2018-03-18T04:01:33.118Z,20.42
2018-03-18T04:04:01.394Z,20.85
2018-03-18T04:06:29.666Z,18.92
2018-03-18T04:08:57.171Z,20.90
2018-03-18T04:11:24.662Z,17.58
2018-03-18T04:13:52.268Z,23.25
2018-03-18T04:16:19.762Z,22.77
2018-03-18T04:18:47.265Z,19.08
2018-03-18T04:21:15.556Z,17.50
2018-03-18T04:23:43.817Z,24.58
2018-03-18T04:26:11.302Z,20.25
2018-03-18T04:28:38.810Z,19.85
2018-03-18T04:31:06.309Z,19.45
2018-03-18T04:33:34.574Z,22.37
2018-03-18T04:36:02.831Z,21.35
2018-03-18T04:38:30.826Z,23.17
2018-03-18T04:40:59.107Z,19.02
2018-03-18T04:43:27.362Z,20.42
2018-03-18T04:45:54.851Z,19.83
2018-03-18T04:48:23.822Z,17.75
2018-03-18T04:50:52.095Z,19.77
2018-03-18T04:53:22.165Z,23.52
2018-03-18T04:55:49.694Z,15.38
2018-03-18T04:58:17.959Z,18.48
2018-03-18T05:00:46.211Z,18.23
2018-03-18T05:03:13.726Z,18.77
2018-03-18T05:05:41.213Z,18.80
2018-03-18T05:08:09.466Z,20.75
2018-03-18T05:10:36.986Z,21.02
2018-03-18T05:13:05.379Z,22.08
2018-03-18T05:15:32.891Z,18.08
2018-03-18T05:18:00.403Z,18.75
2018-03-18T05:20:27.901Z,20.45
2018-03-18T05:22:55.381Z,19.35
2018-03-18T05:25:22.903Z,19.10
2018-03-18T05:27:50.395Z,19.40
2018-03-18T05:30:17.901Z,21.58
2018-03-18T05:32:45.430Z,19.30
2018-03-18T05:35:12.922Z,19.48
2018-03-18T05:37:40.422Z,21.50
2018-03-18T05:40:07.918Z,20.58
2018-03-18T05:42:36.255Z,21.45
2018-03-18T05:45:03.754Z,20.30
2018-03-18T05:47:33.465Z,17.83
2018-03-18T05:50:01.729Z,18.17
2018-03-18T05:52:30.013Z,17.00
2018-03-18T05:54:58.303Z,20.05
2018-03-18T05:57:26.555Z,18.02
2018-03-18T05:59:54.059Z,18.20
2018-03-18T06:02:21.586Z,18.95
2018-03-18T06:04:50.013Z,16.98
2018-03-18T06:07:17.676Z,21.15
2018-03-18T06:09:45.223Z,20.62
2018-03-18T06:12:12.835Z,19.25
2018-03-18T06:14:40.783Z,19.05
2018-03-18T06:17:08.411Z,16.12
2018-03-18T06:19:36.083Z,17.73
2018-03-18T06:22:03.597Z,19.15
2018-03-18T06:24:31.997Z,19.77
2018-03-18T06:26:59.622Z,17.75
2018-03-18T06:29:28.262Z,17.30
2018-03-18T06:31:55.765Z,14.80
2018-03-18T06:34:23.382Z,19.60
2018-03-18T06:36:51.687Z,20.65
2018-03-18T06:39:19.175Z,20.33
2018-03-18T06:41:47.465Z,15.05
2018-03-18T06:44:15.852Z,16.50
2018-03-18T06:46:43.358Z,19.52
2018-03-18T06:49:10.846Z,19.20
2018-03-18T06:51:38.338Z,17.92
2018-03-18T06:54:05.822Z,19.58
2018-03-18T06:56:33.432Z,16.27
2018-03-18T06:59:01.746Z,16.80
2018-03-18T07:01:29.344Z,20.10
2018-03-18T07:03:56.883Z,17.37
2018-03-18T07:06:24.448Z,18.92
2018-03-18T07:08:51.985Z,18.80
2018-03-18T07:11:19.643Z,19.27
2018-03-18T07:13:47.299Z,16.27
2018-03-18T07:16:14.868Z,19.27
2018-03-18T07:18:42.419Z,19.02
2018-03-18T07:21:10.026Z,19.62
2018-03-18T07:23:37.646Z,16.62
2018-03-18T07:26:05.231Z,18.50
2018-03-18T07:28:32.791Z,18.67
2018-03-18T07:31:00.294Z,14.65
2018-03-18T07:33:28.573Z,15.25
2018-03-18T07:35:56.977Z,18.83
2018-03-18T07:38:24.490Z,15.52
2018-03-18T07:40:52.127Z,18.73
2018-03-18T07:43:19.633Z,18.00
2018-03-18T07:45:47.153Z,17.20
2018-03-18T07:48:14.778Z,17.37
2018-03-18T07:50:42.339Z,19.27
2018-03-18T07:53:09.938Z,22.05
2018-03-18T07:55:39.933Z,16.98
2018-03-18T07:58:07.524Z,17.20
2018-03-18T08:00:35.204Z,14.20
2018-03-18T08:03:03.565Z,17.37
2018-03-18T08:05:31.074Z,17.27
2018-03-18T08:07:58.594Z,15.20
2018-03-18T08:10:26.145Z,16.42
2018-03-18T08:12:53.729Z,19.75
2018-03-18T08:15:21.353Z,17.67
2018-03-18T08:17:48.876Z,19.30
2018-03-18T08:20:16.510Z,21.30
2018-03-18T08:22:44.879Z,18.98
2018-03-18T08:25:12.431Z,18.98
2018-03-18T08:27:40.039Z,15.65
2018-03-18T08:30:07.567Z,21.17
2018-03-18T08:32:35.115Z,19.50
2018-03-18T08:35:02.926Z,14.52
2018-03-18T08:37:30.601Z,17.08
2018-03-18T08:39:58.163Z,16.70
2018-03-18T08:42:28.412Z,17.95
2018-03-18T08:44:57.008Z,14.48
2018-03-18T08:47:24.584Z,14.75
2018-03-18T08:49:52.235Z,15.77
2018-03-18T08:52:19.862Z,14.38
2018-03-18T08:54:47.374Z,14.05
2018-03-18T08:57:15.654Z,17.70
2018-03-18T08:59:43.960Z,20.40
2018-03-18T09:02:11.626Z,15.18
2018-03-18T09:04:39.164Z,14.98
2018-03-18T09:07:07.468Z,17.12
2018-03-18T09:09:34.998Z,15.20
2018-03-18T09:12:03.262Z,14.05
2018-03-18T09:14:31.607Z,14.68
2018-03-18T09:17:05.596Z,15.93
2018-03-18T09:19:39.860Z,16.00
2018-03-18T09:22:17.894Z,16.75
2018-03-18T09:24:45.415Z,19.90
2018-03-18T09:27:18.239Z,16.25
2018-03-18T09:29:46.134Z,14.27
2018-03-18T09:32:13.811Z,18.80
2018-03-18T09:34:41.450Z,14.40
2018-03-18T09:37:15.555Z,18.60
2018-03-18T09:39:43.596Z,20.52
2018-03-18T09:42:11.905Z,16.75
2018-03-18T09:44:41.350Z,17.37
2018-03-18T09:47:11.118Z,16.95
2018-03-18T09:49:38.790Z,16.95
2018-03-18T09:52:06.451Z,17.35
2018-03-18T09:54:51.493Z,20.12
2018-03-18T09:57:22.143Z,17.50
2018-03-18T09:59:49.789Z,14.52
2018-03-18T10:02:17.357Z,21.00
2018-03-18T10:04:44.958Z,19.10
2018-03-18T10:07:12.732Z,13.98
2018-03-18T10:09:40.222Z,14.57
2018-03-18T10:12:08.499Z,17.95
2018-03-18T10:17:30.999Z,14.05
2018-03-18T10:19:58.654Z,21.17
2018-03-18T10:22:26.176Z,16.20
2018-03-18T10:24:53.854Z,16.25
2018-03-18T10:27:23.206Z,16.73
2018-03-18T10:29:51.803Z,18.65
2018-03-18T10:32:21.092Z,18.08
2018-03-18T10:34:48.936Z,19.10
2018-03-18T10:37:16.619Z,17.48
2018-03-18T10:39:44.887Z,16.37
2018-03-18T10:42:12.944Z,13.75
2018-03-18T10:44:40.588Z,16.12
2018-03-18T10:47:08.491Z,13.82
2018-03-18T10:49:36.452Z,16.50
2018-03-18T10:52:11.419Z,15.50
2018-03-18T10:54:38.978Z,20.60
2018-03-18T10:57:07.519Z,18.52
2018-03-18T10:59:35.078Z,17.92
2018-03-18T11:02:05.486Z,16.58
2018-03-18T11:04:33.064Z,16.75
2018-03-18T11:07:01.401Z,20.02
2018-03-18T11:09:32.812Z,16.40
2018-03-18T11:12:01.177Z,18.50
2018-03-18T11:14:28.748Z,20.15
2018-03-18T11:16:57.526Z,25.75
2018-03-18T11:19:25.112Z,18.30
2018-03-18T11:21:52.646Z,19.37
2018-03-18T11:24:48.532Z,17.60
2018-03-18T11:27:17.949Z,19.23
2018-03-18T11:29:45.575Z,20.00
2018-03-18T11:32:31.771Z,16.10
2018-03-18T11:35:04.402Z,23.23
2018-03-18T11:37:37.956Z,20.35
2018-03-18T11:42:55.633Z,21.05
2018-03-18T11:45:23.187Z,19.08
2018-03-18T11:47:54.160Z,23.52
2018-03-18T11:50:22.591Z,19.40
2018-03-18T11:52:56.836Z,20.85
2018-03-18T11:55:26.154Z,20.17
2018-03-18T11:58:01.067Z,21.10
2018-03-18T12:00:30.687Z,17.48
2018-03-18T12:03:01.407Z,20.50
2018-03-18T12:05:35.835Z,22.70
2018-03-18T12:08:03.747Z,19.83
2018-03-18T12:10:31.368Z,23.00
2018-03-18T12:12:58.961Z,18.27
2018-03-18T12:15:26.640Z,19.65
2018-03-18T12:17:54.301Z,24.02
2018-03-18T12:20:21.882Z,22.30
2018-03-18T12:22:49.514Z,20.48
2018-03-18T12:25:17.121Z,22.85
2018-03-18T12:27:44.623Z,21.05
2018-03-18T12:30:12.150Z,23.77
2018-03-18T12:32:39.678Z,18.55
2018-03-18T12:35:07.218Z,20.48
2018-03-18T12:37:34.707Z,21.35
2018-03-18T12:40:15.067Z,19.83
2018-03-18T12:42:55.270Z,22.40
2018-03-18T12:45:23.807Z,19.77
2018-03-18T12:47:51.814Z,19.00
2018-03-18T12:50:19.370Z,22.27
2018-03-18T12:52:46.862Z,18.42
2018-03-18T12:55:14.470Z,21.10
2018-03-18T12:57:42.099Z,18.37
2018-03-18T13:00:11.154Z,21.20
2018-03-18T13:02:39.516Z,17.08
2018-03-18T13:05:07.057Z,18.25
2018-03-18T13:07:34.606Z,22.30
2018-03-18T13:10:02.920Z,18.05
2018-03-18T13:12:30.526Z,20.85
2018-03-18T13:14:58.172Z,21.55
2018-03-18T13:17:26.728Z,17.67
2018-03-18T13:19:54.368Z,16.73
2018-03-18T13:22:22.054Z,17.48
2018-03-18T13:24:49.621Z,18.60
2018-03-18T13:27:17.337Z,26.00
2018-03-18T13:29:45.680Z,15.52
2018-03-18T13:32:13.993Z,19.25
2018-03-18T13:34:41.591Z,17.12
2018-03-18T13:37:09.159Z,17.65
2018-03-18T13:39:36.711Z,19.80
2018-03-18T13:42:04.554Z,17.10
2018-03-18T13:44:32.117Z,18.62
2018-03-18T13:46:59.700Z,18.85
2018-03-18T13:49:28.044Z,16.37
2018-03-18T13:51:55.589Z,15.95
2018-03-18T13:54:23.157Z,16.23
2018-03-18T13:56:50.694Z,18.60
2018-03-18T13:59:18.227Z,18.75
2018-03-18T14:01:45.793Z,18.20
2018-03-18T14:04:13.350Z,20.30
2018-03-18T14:06:40.910Z,17.95
2018-03-18T14:09:09.230Z,19.02
2018-03-18T14:11:38.408Z,17.65
2018-03-18T14:14:06.002Z,18.77
2018-03-18T14:16:33.601Z,17.65
2018-03-18T14:19:01.161Z,21.17
2018-03-18T14:21:28.831Z,20.45
2018-03-18T14:23:56.363Z,19.77
2018-03-18T14:26:24.000Z,19.52
2018-03-18T14:28:52.401Z,14.68
2018-03-18T14:31:19.947Z,18.20
2018-03-18T14:33:47.492Z,17.17
2018-03-18T14:36:15.082Z,19.98
2018-03-18T14:38:42.613Z,14.98
2018-03-18T14:41:10.203Z,15.07
2018-03-18T14:43:37.716Z,18.02
2018-03-18T14:46:05.244Z,15.73
2018-03-18T14:48:32.848Z,16.37
2018-03-18T14:51:00.636Z,20.20
2018-03-18T14:53:29.925Z,17.83
2018-03-18T14:55:57.508Z,16.90
2018-03-18T14:58:25.078Z,30.80
2018-03-18T15:00:52.695Z,16.17
2018-03-18T15:03:20.219Z,18.60
2018-03-18T15:05:48.501Z,16.45
2018-03-18T15:08:16.800Z,15.57
2018-03-18T15:10:44.367Z,13.77
2018-03-18T15:13:11.922Z,20.73
2018-03-18T15:15:39.486Z,37.25
2018-03-18T15:18:07.063Z,16.23
2018-03-18T15:20:34.582Z,17.25
2018-03-18T15:23:02.198Z,16.67
2018-03-18T15:25:29.753Z,12.65
2018-03-18T15:27:57.315Z,16.15
2018-03-18T15:30:24.859Z,12.98
2018-03-18T15:32:52.442Z,16.05
2018-03-18T15:35:19.982Z,17.17
2018-03-18T15:37:47.559Z,17.48
2018-03-18T15:40:15.063Z,15.02
2018-03-18T15:42:43.358Z,16.15
2018-03-18T15:45:10.843Z,15.82
2018-03-18T15:47:38.343Z,13.62
2018-03-18T15:50:06.600Z,17.33
2018-03-18T15:52:34.191Z,14.98
2018-03-18T15:55:01.817Z,14.57
2018-03-18T15:57:29.298Z,13.55
2018-03-18T15:59:57.757Z,15.10
2018-03-18T16:02:25.355Z,18.27
2018-03-18T16:04:52.890Z,16.12
2018-03-18T16:07:20.520Z,12.63
2018-03-18T16:09:48.058Z,12.50
2018-03-18T16:12:15.588Z,14.98
2018-03-18T16:14:43.967Z,15.13
2018-03-18T16:17:11.503Z,14.73
2018-03-18T16:19:39.054Z,11.85
2018-03-18T16:22:06.613Z,13.77
2018-03-18T16:24:34.962Z,14.55
2018-03-18T16:27:02.484Z,16.60
2018-03-18T16:29:42.989Z,18.60
2018-03-18T16:32:10.608Z,16.55
2018-03-18T16:34:38.119Z,13.40
2018-03-18T16:37:05.690Z,14.73
2018-03-18T16:39:33.227Z,12.40
2018-03-18T16:42:00.799Z,12.93
2018-03-18T16:44:28.395Z,10.10
2018-03-18T16:46:55.887Z,18.60
2018-03-18T16:49:23.426Z,16.92
2018-03-18T16:51:50.906Z,12.45
2018-03-18T16:54:18.398Z,9.95
2018-03-18T16:56:47.491Z,20.35
2018-03-18T16:59:15.749Z,16.67
2018-03-18T17:01:43.294Z,17.85
2018-03-18T17:04:10.899Z,14.87
2018-03-18T17:06:38.426Z,13.20
2018-03-18T17:09:05.992Z,14.15
2018-03-18T17:11:33.563Z,12.40
2018-03-18T17:14:01.051Z,11.27
2018-03-18T17:16:29.408Z,12.77
2018-03-18T17:18:56.914Z,14.50
2018-03-18T17:21:24.418Z,12.02
2018-03-18T17:23:51.943Z,13.65
2018-03-18T17:26:19.438Z,10.50
2018-03-18T17:28:46.918Z,16.83
2018-03-18T17:31:15.238Z,10.98
2018-03-18T17:33:42.723Z,16.05
2018-03-18T17:36:10.227Z,10.40
2018-03-18T17:38:37.732Z,12.80
2018-03-18T17:41:05.254Z,11.70
2018-03-18T17:43:33.928Z,14.50
2018-03-18T17:46:13.503Z,11.30
2018-03-18T17:48:52.750Z,10.05
2018-03-18T17:51:32.173Z,14.25
2018-03-18T17:54:11.614Z,15.52
2018-03-18T17:56:39.114Z,10.50
2018-03-18T17:59:06.590Z,9.77
2018-03-18T18:01:34.947Z,12.80
2018-03-18T18:04:03.940Z,12.68
2018-03-18T18:06:31.540Z,12.70
2018-03-18T18:08:59.080Z,12.07
2018-03-18T18:11:27.388Z,12.55
2018-03-18T18:13:54.894Z,14.93
2018-03-18T18:16:22.373Z,10.25
2018-03-18T18:18:50.765Z,19.08
2018-03-18T18:21:18.339Z,11.95
2018-03-18T18:23:45.945Z,11.12
2018-03-18T18:26:13.526Z,9.18
2018-03-18T18:28:41.855Z,12.23
2018-03-18T18:31:09.371Z,11.82
2018-03-18T18:33:37.610Z,14.95
2018-03-18T18:36:05.138Z,11.50
2018-03-18T18:38:32.626Z,14.38
2018-03-18T18:41:00.261Z,18.85
2018-03-18T18:43:27.884Z,19.95
2018-03-18T18:45:56.138Z,13.32
2018-03-18T18:48:23.658Z,15.30
2018-03-18T18:50:51.208Z,14.05
2018-03-18T18:53:18.694Z,12.32
2018-03-18T18:55:46.242Z,10.55
2018-03-18T18:58:14.377Z,12.20
2018-03-18T19:00:41.962Z,11.57
2018-03-18T19:03:09.746Z,10.95
2018-03-18T19:05:37.234Z,10.82
2018-03-18T19:08:05.522Z,14.77
2018-03-18T19:10:33.058Z,11.43
2018-03-18T19:13:01.360Z,12.60
2018-03-18T19:15:29.770Z,10.90
2018-03-18T19:17:57.343Z,11.82
2018-03-18T19:20:24.859Z,11.93
2018-03-18T19:22:53.184Z,9.88
2018-03-18T19:25:20.670Z,11.25
2018-03-18T19:27:48.160Z,15.70
2018-03-18T19:30:15.667Z,9.95
2018-03-18T19:32:43.218Z,14.07
2018-03-18T19:35:10.698Z,16.35
2018-03-18T19:37:38.313Z,12.63
2018-03-18T19:40:05.816Z,11.70
2018-03-18T19:42:33.295Z,9.18
2018-03-18T19:45:01.627Z,8.20
2018-03-18T19:47:29.170Z,11.38
2018-03-18T19:49:56.688Z,8.23
2018-03-18T19:52:25.051Z,7.95
2018-03-18T19:54:52.594Z,9.68
2018-03-18T19:57:20.098Z,8.73
2018-03-18T19:59:47.729Z,9.07
2018-03-18T20:02:15.330Z,9.32
2018-03-18T20:04:42.886Z,12.52
2018-03-18T20:07:10.425Z,9.52
2018-03-18T20:09:37.945Z,9.90
2018-03-18T20:12:05.539Z,14.82
2018-03-18T20:14:33.058Z,13.00
2018-03-18T20:17:00.654Z,12.82
2018-03-18T20:19:28.226Z,10.90
2018-03-18T20:21:56.696Z,11.75
2018-03-18T20:24:25.033Z,13.13
2018-03-18T20:26:52.643Z,8.95
2018-03-18T20:29:21.562Z,18.25
2018-03-18T20:31:49.157Z,11.25
2018-03-18T20:34:16.671Z,11.10
2018-03-18T20:36:44.250Z,8.75
2018-03-18T20:39:15.127Z,11.57
2018-03-18T20:41:42.819Z,10.80
2018-03-18T20:44:11.863Z,13.32
2018-03-18T20:46:40.131Z,14.45
2018-03-18T20:49:07.842Z,12.98
2018-03-18T20:51:35.430Z,15.20
2018-03-18T20:54:03.944Z,18.17
2018-03-18T20:56:31.543Z,18.35
2018-03-18T20:59:01.022Z,16.35
2018-03-18T21:01:29.342Z,13.88
2018-03-18T21:03:56.951Z,14.38
2018-03-18T21:06:24.628Z,17.42
2018-03-18T21:08:53.005Z,20.88
2018-03-18T21:11:20.600Z,16.08
2018-03-18T21:13:49.141Z,15.57
2018-03-18T21:16:16.679Z,20.62
2018-03-18T21:18:44.259Z,18.80
2018-03-18T21:21:11.773Z,18.27
2018-03-18T21:23:39.322Z,16.17
2018-03-18T21:26:07.658Z,17.08
2018-03-18T21:28:35.224Z,19.55
2018-03-18T21:31:02.770Z,15.13
2018-03-18T21:33:30.335Z,16.37
2018-03-18T21:35:57.894Z,14.73
2018-03-18T21:38:25.418Z,15.80
2018-03-18T21:40:52.968Z,14.43
2018-03-18T21:43:20.551Z,15.20
2018-03-18T21:45:48.091Z,17.27
2018-03-18T21:48:15.681Z,16.02
2018-03-18T21:50:43.283Z,17.37
2018-03-18T21:53:11.646Z,12.70
2018-03-18T21:55:39.184Z,15.40
2018-03-18T21:58:06.712Z,13.62
2018-03-18T22:00:34.236Z,15.15
2018-03-18T22:03:01.958Z,15.50
2018-03-18T22:05:29.510Z,15.48
2018-03-18T22:07:57.074Z,11.88
2018-03-18T22:10:24.587Z,13.85
2018-03-18T22:12:52.862Z,8.85
2018-03-18T22:15:21.156Z,10.52
2018-03-18T22:17:48.710Z,8.75
2018-03-18T22:20:17.058Z,9.15
2018-03-18T22:22:44.620Z,9.88
2018-03-18T22:25:12.184Z,13.55
2018-03-18T22:27:40.635Z,9.40
2018-03-18T22:30:08.323Z,9.10
2018-03-18T22:32:37.619Z,9.88
2018-03-18T22:35:05.203Z,13.00
2018-03-18T22:37:32.771Z,12.35
2018-03-18T22:40:00.397Z,7.80
2018-03-18T22:42:27.938Z,11.48
2018-03-18T22:44:55.590Z,13.25
2018-03-18T22:47:23.863Z,8.70
2018-03-18T22:49:51.443Z,8.98
2018-03-18T22:52:19.036Z,13.93
2018-03-18T22:54:47.342Z,12.80
2018-03-18T22:57:14.960Z,12.43
2018-03-18T22:59:43.270Z,8.27
2018-03-18T23:02:10.903Z,11.52
2018-03-18T23:04:39.334Z,9.50
2018-03-18T23:07:06.878Z,12.75
2018-03-18T23:09:35.136Z,13.90
2018-03-18T23:12:02.743Z,10.30
2018-03-18T23:14:30.347Z,12.30
2018-03-18T23:16:57.907Z,11.98
2018-03-18T23:19:26.242Z,10.85
2018-03-18T23:21:53.816Z,10.60
2018-03-18T23:24:21.440Z,15.20
2018-03-18T23:26:48.926Z,12.27
2018-03-18T23:29:16.530Z,11.18
2018-03-18T23:31:44.139Z,10.27
2018-03-18T23:34:11.707Z,14.25
2018-03-18T23:36:39.278Z,10.20
2018-03-18T23:39:06.869Z,9.15
2018-03-18T23:41:34.378Z,9.30
2018-03-18T23:44:01.995Z,9.52
2018-03-18T23:46:29.584Z,8.80
2018-03-18T23:48:57.925Z,8.60
2018-03-18T23:51:26.466Z,9.88
2018-03-18T23:53:53.995Z,11.77
2018-03-18T23:56:21.519Z,14.45
2018-03-18T23:58:49.128Z,11.25
